createdAt,value
2022-11-12T00:00:20.773Z,3.32
2022-11-12T00:03:27.561Z,3.33
2022-11-12T00:06:33.936Z,3.32
2022-11-12T00:09:38.510Z,3.24
2022-11-12T00:12:44.843Z,3.22
2022-11-12T00:15:49.402Z,3.19
2022-11-12T00:18:55.731Z,3.18
2022-11-12T00:22:00.425Z,3.15
2022-11-12T00:25:08.319Z,3.10
2022-11-12T00:28:14.817Z,3.07
2022-11-12T00:31:21.165Z,3.05
2022-11-12T00:34:25.858Z,3.06
2022-11-12T00:37:32.166Z,3.05
2022-11-12T00:40:36.788Z,3.02
2022-11-12T00:43:42.988Z,2.96
2022-11-12T00:46:49.761Z,2.89
2022-11-12T00:49:56.158Z,2.83
2022-11-12T00:53:00.723Z,2.76
2022-11-12T00:56:09.454Z,2.72
2022-11-12T00:59:16.090Z,2.67
2022-11-12T01:02:22.395Z,2.67
2022-11-12T01:05:26.982Z,2.64
2022-11-12T01:08:34.083Z,2.61
2022-11-12T01:11:42.273Z,2.55
2022-11-12T01:14:48.533Z,2.52
2022-11-12T01:17:54.889Z,2.55
2022-11-12T01:21:01.386Z,2.56
2022-11-12T01:24:08.786Z,2.51
2022-11-12T01:27:15.142Z,2.45
2022-11-12T01:30:19.918Z,2.39
2022-11-12T01:33:26.199Z,2.35
2022-11-12T01:36:35.703Z,2.33
2022-11-12T01:39:42.060Z,2.31
2022-11-12T01:42:52.626Z,2.29
2022-11-12T01:46:01.385Z,2.27
2022-11-12T01:49:12.362Z,2.26
2022-11-12T01:52:23.021Z,2.25
2022-11-12T01:55:33.867Z,2.19
2022-11-12T01:58:41.663Z,2.15
2022-11-12T02:01:48.023Z,2.11
2022-11-12T02:04:53.020Z,2.09
2022-11-12T02:08:02.110Z,2.07
2022-11-12T02:11:17.382Z,2.06
2022-11-12T02:14:24.468Z,2.05
2022-11-12T02:17:30.753Z,2.05
2022-11-12T02:20:39.061Z,2.06
2022-11-12T02:23:45.352Z,2.10
2022-11-12T02:26:55.465Z,2.10
2022-11-12T02:30:01.811Z,2.12
2022-11-12T02:33:06.467Z,2.14
2022-11-12T02:36:13.039Z,2.14
2022-11-12T02:39:19.894Z,2.14
2022-11-12T02:42:26.198Z,2.14
2022-11-12T02:45:34.808Z,2.09
2022-11-12T02:48:41.328Z,2.07
2022-11-12T02:51:47.717Z,2.07
2022-11-12T02:54:52.318Z,2.05
2022-11-12T02:58:01.762Z,2.05
2022-11-12T03:01:08.429Z,2.05
2022-11-12T03:04:14.817Z,2.02
2022-11-12T03:07:19.499Z,2.00
2022-11-12T03:10:26.162Z,1.98
2022-11-12T03:13:32.491Z,1.98
2022-11-12T03:16:37.074Z,1.94
2022-11-12T03:19:43.406Z,1.91
2022-11-12T03:22:55.912Z,1.90
2022-11-12T03:26:03.228Z,1.91
2022-11-12T03:29:09.556Z,1.87
2022-11-12T03:32:14.145Z,1.88
2022-11-12T03:35:20.593Z,1.89
2022-11-12T03:38:27.168Z,1.85
2022-11-12T03:41:33.815Z,1.81
2022-11-12T03:44:38.388Z,1.76
2022-11-12T03:47:46.887Z,1.71
2022-11-12T03:50:53.406Z,1.66
2022-11-12T03:53:59.811Z,1.64
2022-11-12T03:57:04.569Z,1.61
2022-11-12T04:00:13.289Z,1.60
2022-11-12T04:03:19.611Z,1.60
2022-11-12T04:06:41.722Z,1.59
2022-11-12T04:09:48.116Z,1.58
2022-11-12T04:13:12.144Z,1.58
2022-11-12T04:16:37.565Z,1.54
2022-11-12T04:20:01.235Z,1.49
2022-11-12T04:23:07.496Z,1.44
2022-11-12T04:26:26.160Z,1.42
2022-11-12T04:29:49.935Z,1.42
2022-11-12T04:32:57.036Z,1.39
2022-11-12T04:36:03.398Z,1.37
2022-11-12T04:39:09.874Z,1.37
2022-11-12T04:42:33.841Z,1.36
2022-11-12T04:45:42.047Z,1.35
2022-11-12T04:48:48.367Z,1.34
2022-11-12T04:52:08.011Z,1.33
2022-11-12T04:55:14.629Z,1.27
2022-11-12T04:58:21.326Z,1.23
2022-11-12T05:01:27.640Z,1.21
2022-11-12T05:04:32.183Z,1.19
2022-11-12T05:07:38.470Z,1.17
2022-11-12T05:10:43.078Z,1.15
2022-11-12T05:13:49.436Z,1.14
2022-11-12T05:16:53.962Z,1.11
2022-11-12T05:20:00.243Z,1.10
2022-11-12T05:23:07.420Z,1.06
2022-11-12T05:26:14.110Z,1.01
2022-11-12T05:29:21.042Z,1.03
2022-11-12T05:32:27.994Z,1.04
2022-11-12T05:35:34.292Z,1.03
2022-11-12T05:38:39.534Z,1.03
2022-11-12T05:42:11.303Z,1.04
2022-11-12T05:45:13.144Z,1.02
2022-11-12T05:48:24.203Z,1.01
2022-11-12T05:51:30.989Z,0.98
2022-11-12T06:07:12.181Z,1.30
2022-11-12T06:10:20.668Z,1.38
2022-11-12T06:13:28.885Z,1.33
2022-11-12T06:16:35.410Z,1.26
2022-11-12T06:19:41.800Z,1.23
2022-11-12T06:22:46.186Z,1.22
2022-11-12T06:25:52.320Z,1.20
2022-11-12T06:28:58.738Z,1.18
2022-11-12T06:32:05.159Z,1.18
2022-11-12T06:35:10.505Z,1.18
2022-11-12T06:38:16.672Z,1.17
2022-11-12T06:41:22.962Z,1.21
2022-11-12T06:44:27.462Z,1.28
2022-11-12T06:47:33.776Z,1.32
2022-11-12T06:50:38.385Z,1.31
2022-11-12T06:53:44.997Z,1.27
2022-11-12T06:56:51.503Z,1.24
2022-11-12T06:59:57.807Z,1.25
2022-11-12T07:03:06.617Z,1.27
2022-11-12T07:06:14.687Z,1.28
2022-11-12T07:09:21.363Z,1.32
2022-11-12T07:12:27.698Z,1.35
2022-11-12T07:15:32.359Z,1.39
2022-11-12T07:18:39.021Z,1.42
2022-11-12T07:21:45.092Z,1.46
2022-11-12T07:24:51.438Z,1.51
2022-11-12T07:27:56.415Z,1.55
2022-11-12T07:31:05.018Z,1.59
2022-11-12T07:34:11.409Z,1.66
2022-11-12T07:37:15.959Z,1.74
2022-11-12T07:40:22.533Z,1.79
2022-11-12T07:43:28.825Z,1.85
2022-11-12T07:46:33.552Z,1.91
2022-11-12T07:49:39.955Z,2.00
2022-11-12T07:52:44.685Z,2.09
2022-11-12T07:55:58.427Z,2.18
2022-11-12T07:59:06.004Z,2.28
2022-11-12T08:02:13.049Z,2.38
2022-11-12T08:05:21.544Z,2.48
2022-11-12T08:08:28.453Z,2.57
2022-11-12T08:11:35.303Z,2.67
2022-11-12T08:14:41.605Z,2.76
2022-11-12T08:17:46.281Z,2.86
2022-11-12T08:20:52.600Z,2.96
2022-11-12T08:23:57.205Z,3.06
2022-11-12T08:27:03.483Z,3.16
2022-11-12T08:30:12.246Z,3.25
2022-11-12T08:33:18.591Z,3.35
2022-11-12T08:36:23.210Z,3.48
2022-11-12T08:39:29.603Z,3.61
2022-11-12T08:42:34.260Z,3.74
2022-11-12T08:45:42.214Z,3.85
2022-11-12T08:48:48.492Z,3.98
2022-11-12T08:51:54.955Z,4.13
2022-11-12T08:55:01.318Z,4.28
2022-11-12T08:58:06.036Z,4.48
2022-11-12T09:01:12.361Z,4.74
2022-11-12T09:04:16.943Z,5.06
2022-11-12T09:07:48.918Z,5.39
2022-11-12T09:10:50.112Z,5.74
2022-11-12T09:13:57.294Z,5.98
2022-11-12T09:17:03.618Z,6.14
2022-11-12T09:20:09.059Z,6.33
2022-11-12T09:23:17.860Z,6.53
2022-11-12T09:26:24.305Z,6.77
2022-11-12T09:29:28.885Z,6.96
2022-11-12T09:32:35.370Z,7.11
2022-11-12T09:35:41.790Z,7.22
2022-11-12T09:38:48.106Z,7.39
2022-11-12T09:41:55.499Z,7.53
2022-11-12T09:45:08.948Z,7.65
2022-11-12T09:48:21.821Z,7.79
2022-11-12T09:51:33.997Z,7.92
2022-11-12T09:54:40.981Z,8.03
2022-11-12T09:57:47.607Z,8.15
2022-11-12T10:00:59.193Z,8.24
2022-11-12T10:04:17.901Z,8.32
2022-11-12T10:07:37.921Z,8.42
2022-11-12T10:10:48.566Z,8.54
2022-11-12T10:14:09.976Z,8.66
2022-11-12T10:17:28.834Z,8.78
2022-11-12T10:20:43.717Z,8.93
2022-11-12T10:23:54.273Z,9.05
2022-11-12T10:27:00.695Z,9.13
2022-11-12T10:30:14.887Z,9.24
2022-11-12T10:33:20.512Z,9.36
2022-11-12T10:36:31.526Z,9.45
2022-11-12T10:39:42.810Z,9.56
2022-11-12T10:43:00.900Z,9.71
2022-11-12T10:46:21.395Z,9.82
2022-11-12T10:49:27.720Z,9.90
2022-11-12T10:52:33.577Z,9.99
2022-11-12T10:55:55.406Z,10.08
2022-11-12T10:59:17.725Z,10.22
2022-11-12T11:02:23.422Z,10.38
2022-11-12T11:05:36.888Z,10.50
2022-11-12T11:08:45.179Z,10.64
2022-11-12T11:11:54.755Z,10.78
2022-11-12T11:15:20.113Z,10.93
2022-11-12T11:18:26.414Z,11.07
2022-11-12T11:21:58.819Z,11.20
2022-11-12T11:25:20.964Z,11.32
2022-11-12T11:28:34.694Z,11.44
2022-11-12T11:31:46.945Z,11.56
2022-11-12T11:35:03.226Z,11.68
2022-11-12T11:38:23.330Z,11.79
2022-11-12T11:41:45.778Z,11.90
2022-11-12T11:45:00.945Z,12.01
2022-11-12T11:48:14.983Z,12.10
2022-11-12T11:51:37.331Z,12.20
2022-11-12T11:55:03.144Z,12.31
2022-11-12T11:58:19.974Z,12.41
2022-11-12T12:01:33.808Z,12.52
2022-11-12T12:04:52.503Z,12.61
2022-11-12T12:08:04.080Z,12.70
2022-11-12T12:11:17.815Z,12.79
2022-11-12T12:14:42.793Z,12.88
2022-11-12T12:18:02.433Z,12.96
2022-11-12T12:21:15.730Z,13.03
2022-11-12T12:24:25.195Z,13.10
2022-11-12T12:27:36.047Z,13.16
2022-11-12T12:30:46.485Z,13.21
2022-11-12T12:33:56.448Z,13.26
2022-11-12T12:37:08.341Z,13.31
2022-11-12T12:40:22.289Z,13.35
2022-11-12T12:43:34.449Z,13.40
2022-11-12T12:46:45.686Z,13.45
2022-11-12T12:49:52.821Z,13.49
2022-11-12T12:53:07.250Z,13.52
2022-11-12T12:56:47.173Z,13.53
2022-11-12T12:59:52.865Z,13.55
2022-11-12T13:02:59.607Z,13.56
2022-11-12T13:06:23.074Z,13.56
2022-11-12T13:09:29.642Z,13.53
2022-11-12T13:13:04.664Z,13.50
2022-11-12T13:16:10.772Z,13.46
2022-11-12T13:19:27.581Z,13.42
2022-11-12T13:22:52.573Z,13.37
2022-11-12T13:26:35.511Z,13.34
2022-11-12T13:29:46.213Z,13.31
2022-11-12T13:32:59.130Z,13.28
2022-11-12T13:36:29.954Z,13.24
2022-11-12T13:39:38.338Z,13.19
2022-11-12T13:42:50.263Z,13.15
2022-11-12T13:46:00.405Z,13.09
2022-11-12T13:49:10.666Z,13.04
2022-11-12T13:52:19.917Z,12.99
2022-11-12T13:55:25.553Z,12.93
2022-11-12T13:58:33.444Z,12.88
2022-11-12T14:01:41.175Z,12.85
2022-11-12T14:04:47.154Z,12.80
2022-11-12T14:08:04.340Z,12.74
2022-11-12T14:11:25.144Z,12.68
2022-11-12T14:14:45.868Z,12.61
2022-11-12T14:17:59.508Z,12.53
2022-11-12T14:21:12.419Z,12.46
2022-11-12T14:24:18.137Z,12.39
2022-11-12T14:27:36.738Z,12.32
2022-11-12T14:30:47.653Z,12.24
2022-11-12T14:33:53.232Z,12.14
2022-11-12T14:36:59.221Z,12.04
2022-11-12T14:40:05.787Z,11.92
2022-11-12T14:43:27.387Z,11.80
2022-11-12T14:46:39.703Z,11.66
2022-11-12T14:49:49.160Z,11.56
2022-11-12T14:53:00.562Z,11.46
2022-11-12T14:56:08.604Z,11.37
2022-11-12T14:59:15.674Z,11.29
2022-11-12T15:02:36.053Z,11.21
2022-11-12T15:06:10.673Z,11.06
2022-11-12T15:09:21.986Z,10.88
2022-11-12T15:12:31.535Z,10.76
2022-11-12T15:15:38.674Z,10.66
2022-11-12T15:18:45.052Z,10.55
2022-11-12T15:21:53.374Z,10.43
2022-11-12T15:25:10.503Z,10.33
2022-11-12T15:28:22.188Z,10.20
2022-11-12T15:31:27.842Z,10.03
2022-11-12T15:34:48.087Z,9.86
2022-11-12T15:37:54.388Z,9.71
2022-11-12T15:41:00.993Z,9.58
2022-11-12T15:44:09.340Z,9.44
2022-11-12T15:47:21.890Z,9.29
2022-11-12T15:50:28.067Z,9.11
2022-11-12T15:53:32.080Z,8.95
2022-11-12T15:56:37.937Z,8.80
2022-11-12T15:59:44.803Z,8.69
2022-11-12T16:02:57.023Z,8.57
2022-11-12T16:06:08.645Z,8.44
2022-11-12T16:09:15.087Z,8.33
2022-11-12T16:12:21.146Z,8.21
2022-11-12T16:15:27.139Z,8.09
2022-11-12T16:18:32.776Z,7.99
2022-11-12T16:21:38.428Z,7.91
2022-11-12T16:24:44.775Z,7.86
2022-11-12T16:27:54.410Z,7.77
2022-11-12T16:31:01.338Z,7.63
2022-11-12T16:34:07.059Z,7.51
2022-11-12T16:37:14.001Z,7.44
2022-11-12T16:40:22.248Z,7.38
2022-11-12T16:43:28.190Z,7.29
2022-11-12T16:46:40.250Z,7.21
2022-11-12T16:49:45.860Z,7.17
2022-11-12T16:52:52.857Z,7.10
2022-11-12T16:55:59.262Z,7.03
2022-11-12T16:59:05.686Z,6.94
2022-11-12T17:02:16.744Z,6.81
2022-11-12T17:05:24.464Z,6.71
2022-11-12T17:08:33.968Z,6.64
2022-11-12T17:11:40.568Z,6.57
2022-11-12T17:14:46.153Z,6.49
2022-11-12T17:17:54.117Z,6.34
2022-11-12T17:21:07.263Z,6.21
2022-11-12T17:24:12.964Z,6.14
2022-11-12T17:27:18.674Z,6.09
2022-11-12T17:30:24.324Z,6.04
2022-11-12T17:33:30.326Z,5.99
2022-11-12T17:36:40.587Z,5.91
2022-11-12T17:39:49.057Z,5.63
2022-11-12T17:42:55.225Z,5.43
2022-11-12T17:46:01.290Z,5.40
2022-11-12T17:49:07.044Z,5.36
2022-11-12T17:52:12.679Z,5.35
2022-11-12T17:55:18.475Z,5.32
2022-11-12T17:58:24.057Z,5.24
2022-11-12T18:01:31.242Z,5.18
2022-11-12T18:04:37.100Z,5.17
2022-11-12T18:07:42.796Z,5.17
2022-11-12T18:10:48.449Z,5.19
2022-11-12T18:13:54.203Z,5.20
2022-11-12T18:17:01.453Z,5.17
2022-11-12T18:20:09.693Z,5.17
2022-11-12T18:23:15.565Z,5.17
2022-11-12T18:26:21.930Z,5.12
2022-11-12T18:29:26.045Z,5.02
2022-11-12T18:32:31.897Z,4.91
2022-11-12T18:35:37.760Z,4.80
2022-11-12T18:50:49.181Z,4.96
2022-11-12T18:53:54.782Z,5.01
2022-11-12T18:57:00.435Z,4.93
2022-11-12T19:00:07.167Z,4.86
2022-11-12T19:03:12.836Z,4.82
2022-11-12T19:06:18.477Z,4.74
2022-11-12T19:09:24.049Z,4.66
2022-11-12T19:12:29.722Z,4.53
2022-11-12T19:15:36.391Z,4.37
2022-11-12T19:18:43.374Z,4.31
2022-11-12T19:21:49.591Z,4.20
2022-11-12T19:24:55.294Z,4.08
2022-11-12T19:28:00.916Z,3.96
2022-11-12T19:31:08.627Z,3.88
2022-11-12T19:34:14.399Z,3.87
2022-11-12T19:37:33.007Z,3.82
2022-11-12T19:40:39.782Z,3.78
2022-11-12T19:43:45.587Z,3.80
2022-11-12T19:46:51.341Z,3.86
2022-11-12T19:49:56.993Z,3.90
2022-11-12T19:53:02.852Z,3.95
2022-11-12T19:56:09.402Z,3.99
2022-11-12T19:59:15.177Z,4.03
2022-11-12T20:02:21.454Z,4.02
2022-11-12T20:05:25.663Z,3.99
2022-11-12T20:08:32.338Z,3.99
2022-11-12T20:11:38.195Z,4.05
2022-11-12T20:14:43.949Z,4.08
2022-11-12T20:17:49.854Z,4.11
2022-11-12T20:20:57.799Z,4.16
2022-11-12T20:24:03.439Z,4.20
2022-11-12T20:27:09.115Z,4.19
2022-11-12T20:30:16.185Z,4.19
2022-11-12T20:33:22.010Z,4.21
2022-11-12T20:36:27.707Z,4.25
2022-11-12T20:39:33.871Z,4.28
2022-11-12T20:42:41.304Z,4.31
2022-11-12T20:45:52.950Z,4.34
2022-11-12T20:48:58.611Z,4.39
2022-11-12T20:52:04.225Z,4.43
2022-11-12T20:55:11.010Z,4.44
2022-11-12T20:58:16.613Z,4.49
2022-11-12T21:01:24.060Z,4.53
2022-11-12T21:04:29.745Z,4.54
2022-11-12T21:07:35.434Z,4.55
2022-11-12T21:10:41.061Z,4.59
2022-11-12T21:13:46.776Z,4.65
2022-11-12T21:16:52.445Z,4.68
2022-11-12T21:19:58.096Z,4.70
2022-11-12T21:23:03.737Z,4.74
2022-11-12T21:26:12.877Z,4.77
2022-11-12T21:29:19.201Z,4.79
2022-11-12T21:32:24.883Z,4.78
2022-11-12T21:35:30.553Z,4.80
2022-11-12T21:38:36.236Z,4.85
2022-11-12T21:41:41.845Z,4.88
2022-11-12T21:44:47.445Z,4.90
2022-11-12T21:47:54.367Z,4.94
2022-11-12T21:51:06.313Z,4.96
2022-11-12T21:54:15.091Z,4.97
2022-11-12T21:57:20.765Z,4.99
2022-11-12T22:00:41.566Z,5.02
2022-11-12T22:03:48.437Z,5.05
2022-11-12T22:06:54.457Z,5.06
2022-11-12T22:10:00.163Z,5.06
2022-11-12T22:13:25.888Z,5.07
2022-11-12T22:16:31.560Z,5.08
2022-11-12T22:19:39.141Z,5.10
2022-11-12T22:22:44.758Z,5.13
2022-11-12T22:25:50.759Z,5.17
2022-11-12T22:28:58.018Z,5.19
2022-11-12T22:32:03.688Z,5.20
2022-11-12T22:35:10.948Z,5.22
2022-11-12T22:38:16.530Z,5.24
2022-11-12T22:41:24.362Z,5.28
2022-11-12T22:44:29.968Z,5.30
2022-11-12T22:47:35.632Z,5.31
2022-11-12T22:50:41.301Z,5.31
2022-11-12T22:53:47.250Z,5.32
2022-11-12T22:56:52.849Z,5.34
2022-11-12T22:59:58.701Z,5.36
2022-11-12T23:03:04.326Z,5.38
2022-11-12T23:06:10.263Z,5.40
2022-11-12T23:09:18.524Z,5.41
2022-11-12T23:12:24.143Z,5.42
2022-11-12T23:15:32.590Z,5.42
2022-11-12T23:18:38.298Z,5.44
2022-11-12T23:21:43.947Z,5.46
2022-11-12T23:24:49.569Z,5.48
2022-11-12T23:27:55.795Z,5.52
2022-11-12T23:30:59.877Z,5.55
2022-11-12T23:34:05.631Z,5.58
2022-11-12T23:37:11.287Z,5.60
2022-11-12T23:40:17.974Z,5.63
2022-11-12T23:43:23.816Z,5.67
2022-11-12T23:46:29.571Z,5.70
2022-11-12T23:49:35.348Z,5.72
2022-11-12T23:52:40.976Z,5.74
2022-11-12T23:55:46.853Z,5.75
2022-11-12T23:58:56.035Z,5.78
